Main page
METAR-TAF:

METAR-TAF

Airports :

Geneva Airport

Geneva, Switzerland

latitude: 46-15N, longitude: 006-08E, elevation: 420 m

Current weather observation

The report was made 25 minutes ago, at 06:20 UTC
Wind 1 kt from variable directions
Temperature 18°C
Humidity 83%
Pressure 1021 hPa
Visibility 10 km or more
Few clouds at a height of 3000 ft
Scattered clouds at a height of 4500 ft

METAR: LSGG 180620Z VRB01KT 9999 FEW030 SCT045 18/15 Q1021 NOSIG

Time: 08:45 (06:45 UTC)

Forecast

The report was made 1 hour and 20 minutes ago, at 05:25 UTC
Forecast valid from 18 at 06 UTC to 19 at 12 UTC
Wind 13 kt from the Northeast
Visibility 10 km or more
Few clouds at a height of 4500 ft
Becoming
from 18 at 18 UTC to 18 at 20 UTC
Wind 3 kt from variable directions

TAF: LSGG 180525Z 1806/1912 05013KT 9999 FEW045 TX26/1815Z TN16/1806Z TN15/1905Z BECMG 1818/1820 VRB03KT

Weather observations and forecasts of more than 4000 airports (METAR and TAF reports).

The available stations are represented by yellow and red dots on the map.

Hover mouse over dot to see the name of the station.

Then click to see weather observations and forecasts.

To change the map : click on the green buttons with a black cross to zoom in, on the green button with a dash to zoom out, or on the green arrows for adjacent maps.


METAR-TAF: